Terminal Aerodrome Forecast
Issued by NWS Cleveland, OH

Home | Current Version | Previous Version | Graphics & Text | Print | Product List | Glossary On
Versions: 1 2 3 4 5 6 7 8 9 10 11 12 13 14 15 16 17 18 19 20 21 22
000
FTUS41 KCLE 241100
TAFTOL
TAF
KTOL 241140Z 2412/2512 05008KT 1/2SM FG OVC002
     FM241500 05008KT 1SM BR OVC003
     FM241900 13010KT P6SM OVC006
     FM242100 18015G25KT 4SM -SHRA OVC010
     FM242300 24022G40KT P6SM OVC012
     FM250700 25015G30KT 3SM -SHSN OVC012
     FM251000 25012G22KT P6SM OVC015=

USA.gov is the U.S. government's official web portal to all federal, state and local government web resources and services.